24h
KLIENDITUGI:
Saartelennuliinid: +372 58856336 (24/7)
Estairi piletikassa lennujaamas:
+372 6058887; +372 55603687

04.03.2019 õhtune Transaviabaltika lend KTB676 Tallinn - Kärdla ja KTB677 Kärdla – Tallinn väljalend jääb ära. Lennu ära jäämise põhjustab ilmastikuolud Kärdla Lennuväljal. Reisijatele võimaldatakse tasuta lennupileti ümberbroneerimine reisija soovi kohasele mõnele teisele Tallinn-Kärdla või Kärdla-Tallinn lennule. Reisijatele kes ei soovi lennupileti ümberbroneerimist teisele lennule tagastatakse piletiraha. Oma soovist tuleb teada anda e-mailile [email protected] Lisainformatsioon telefonil 58856336

EEKA Kärdla lennuväli

FCEO32 EETN 041300 TAF EEKA 041300Z 0414/0420 14010KT 6000 SN OVC006

TEMPO 0416/0420 2000 SNRA BR BKN003 OVC006=

SPECI EEKA 041400Z 13008KT 9999 OVC002 M01/M01 Q0986=
Kuupäev: 
04/03/2019